sensor_id;sensor_type;location;lat;lon;timestamp;P1;durP1;ratioP1;P2;durP2;ratioP2
85218;SDS011;75606;40.152;44.490;2024-01-10T00:00:37;15.40;;;9.27;;
85218;SDS011;75606;40.152;44.490;2024-01-10T00:03:03;10.32;;;6.07;;
85218;SDS011;75606;40.152;44.490;2024-01-10T00:05:29;15.40;;;9.55;;
85218;SDS011;75606;40.152;44.490;2024-01-10T00:07:54;12.93;;;7.20;;
85218;SDS011;75606;40.152;44.490;2024-01-10T00:10:20;13.30;;;7.72;;
85218;SDS011;75606;40.152;44.490;2024-01-10T00:12:47;15.05;;;8.88;;
85218;SDS011;75606;40.152;44.490;2024-01-10T00:15:13;15.50;;;8.38;;
85218;SDS011;75606;40.152;44.490;2024-01-10T00:17:39;16.17;;;9.05;;
85218;SDS011;75606;40.152;44.490;2024-01-10T00:20:06;14.95;;;8.18;;
85218;SDS011;75606;40.152;44.490;2024-01-10T00:22:32;11.23;;;7.28;;
85218;SDS011;75606;40.152;44.490;2024-01-10T00:24:58;14.20;;;9.43;;
85218;SDS011;75606;40.152;44.490;2024-01-10T00:27:26;21.08;;;11.27;;
85218;SDS011;75606;40.152;44.490;2024-01-10T00:29:51;22.42;;;12.63;;
85218;SDS011;75606;40.152;44.490;2024-01-10T00:32:17;14.77;;;7.25;;
85218;SDS011;75606;40.152;44.490;2024-01-10T00:34:43;16.30;;;9.10;;
85218;SDS011;75606;40.152;44.490;2024-01-10T00:37:08;18.65;;;11.55;;
85218;SDS011;75606;40.152;44.490;2024-01-10T00:39:34;13.98;;;8.02;;
85218;SDS011;75606;40.152;44.490;2024-01-10T00:42:00;17.33;;;9.43;;
85218;SDS011;75606;40.152;44.490;2024-01-10T00:44:25;12.45;;;6.72;;
85218;SDS011;75606;40.152;44.490;2024-01-10T00:46:51;10.25;;;6.63;;
85218;SDS011;75606;40.152;44.490;2024-01-10T00:49:16;14.32;;;8.77;;
85218;SDS011;75606;40.152;44.490;2024-01-10T00:51:42;13.57;;;6.57;;
85218;SDS011;75606;40.152;44.490;2024-01-10T00:54:07;16.80;;;9.10;;
85218;SDS011;75606;40.152;44.490;2024-01-10T00:56:33;15.63;;;8.45;;
85218;SDS011;75606;40.152;44.490;2024-01-10T00:58:59;11.55;;;6.00;;
85218;SDS011;75606;40.152;44.490;2024-01-10T01:01:24;13.35;;;5.78;;
85218;SDS011;75606;40.152;44.490;2024-01-10T01:03:50;14.43;;;7.53;;
85218;SDS011;75606;40.152;44.490;2024-01-10T01:06:15;9.30;;;5.97;;
85218;SDS011;75606;40.152;44.490;2024-01-10T01:08:41;11.77;;;6.78;;
85218;SDS011;75606;40.152;44.490;2024-01-10T01:11:07;11.98;;;6.30;;
85218;SDS011;75606;40.152;44.490;2024-01-10T01:13:32;7.95;;;4.60;;
85218;SDS011;75606;40.152;44.490;2024-01-10T01:15:58;15.38;;;7.18;;
85218;SDS011;75606;40.152;44.490;2024-01-10T01:18:24;18.40;;;8.52;;
85218;SDS011;75606;40.152;44.490;2024-01-10T01:20:49;9.73;;;5.05;;
85218;SDS011;75606;40.152;44.490;2024-01-10T01:23:15;11.00;;;6.35;;
85218;SDS011;75606;40.152;44.490;2024-01-10T01:25:41;12.15;;;6.32;;
85218;SDS011;75606;40.152;44.490;2024-01-10T01:28:07;11.02;;;5.53;;
85218;SDS011;75606;40.152;44.490;2024-01-10T01:30:33;8.85;;;4.38;;
85218;SDS011;75606;40.152;44.490;2024-01-10T01:32:59;8.85;;;5.10;;
85218;SDS011;75606;40.152;44.490;2024-01-10T01:35:25;8.27;;;5.32;;
85218;SDS011;75606;40.152;44.490;2024-01-10T01:37:50;10.20;;;6.00;;
85218;SDS011;75606;40.152;44.490;2024-01-10T01:40:18;9.75;;;6.32;;
85218;SDS011;75606;40.152;44.490;2024-01-10T01:42:47;14.82;;;7.70;;
85218;SDS011;75606;40.152;44.490;2024-01-10T01:47:39;14.90;;;6.88;;
85218;SDS011;75606;40.152;44.490;2024-01-10T01:50:05;15.35;;;8.45;;
85218;SDS011;75606;40.152;44.490;2024-01-10T01:52:31;11.32;;;6.78;;
85218;SDS011;75606;40.152;44.490;2024-01-10T01:54:59;12.00;;;7.50;;
85218;SDS011;75606;40.152;44.490;2024-01-10T01:57:25;10.55;;;6.50;;
85218;SDS011;75606;40.152;44.490;2024-01-10T01:59:51;11.70;;;6.80;;
85218;SDS011;75606;40.152;44.490;2024-01-10T02:02:17;15.15;;;8.23;;
85218;SDS011;75606;40.152;44.490;2024-01-10T02:04:43;16.70;;;9.07;;
85218;SDS011;75606;40.152;44.490;2024-01-10T02:07:10;11.77;;;6.88;;
85218;SDS011;75606;40.152;44.490;2024-01-10T02:09:35;12.13;;;7.82;;
85218;SDS011;75606;40.152;44.490;2024-01-10T02:12:01;13.35;;;7.75;;
85218;SDS011;75606;40.152;44.490;2024-01-10T02:14:28;13.52;;;8.55;;
85218;SDS011;75606;40.152;44.490;2024-01-10T02:16:54;14.50;;;7.47;;
85218;SDS011;75606;40.152;44.490;2024-01-10T02:19:20;12.18;;;7.70;;
85218;SDS011;75606;40.152;44.490;2024-01-10T02:21:47;12.15;;;6.55;;
85218;SDS011;75606;40.152;44.490;2024-01-10T02:24:12;14.23;;;8.88;;
85218;SDS011;75606;40.152;44.490;2024-01-10T02:26:39;10.98;;;6.38;;
85218;SDS011;75606;40.152;44.490;2024-01-10T02:29:05;16.00;;;9.07;;
85218;SDS011;75606;40.152;44.490;2024-01-10T02:31:30;13.05;;;7.18;;
85218;SDS011;75606;40.152;44.490;2024-01-10T02:33:56;10.52;;;6.05;;
85218;SDS011;75606;40.152;44.490;2024-01-10T02:36:23;10.80;;;6.07;;
85218;SDS011;75606;40.152;44.490;2024-01-10T02:38:48;14.90;;;7.32;;
85218;SDS011;75606;40.152;44.490;2024-01-10T02:41:15;11.32;;;5.65;;
85218;SDS011;75606;40.152;44.490;2024-01-10T02:43:41;8.63;;;5.25;;
85218;SDS011;75606;40.152;44.490;2024-01-10T02:46:06;11.07;;;6.13;;
85218;SDS011;75606;40.152;44.490;2024-01-10T02:48:32;9.93;;;5.68;;
85218;SDS011;75606;40.152;44.490;2024-01-10T02:50:58;10.65;;;6.47;;
85218;SDS011;75606;40.152;44.490;2024-01-10T02:53:23;10.27;;;6.20;;
85218;SDS011;75606;40.152;44.490;2024-01-10T02:55:50;9.18;;;5.85;;
85218;SDS011;75606;40.152;44.490;2024-01-10T02:58:15;9.25;;;6.38;;
85218;SDS011;75606;40.152;44.490;2024-01-10T03:00:41;10.70;;;7.00;;
85218;SDS011;75606;40.152;44.490;2024-01-10T03:03:07;10.00;;;6.20;;
85218;SDS011;75606;40.152;44.490;2024-01-10T03:05:32;9.82;;;5.90;;
85218;SDS011;75606;40.152;44.490;2024-01-10T03:07:58;8.05;;;5.13;;
85218;SDS011;75606;40.152;44.490;2024-01-10T03:10:26;9.40;;;6.70;;
85218;SDS011;75606;40.152;44.490;2024-01-10T03:12:51;11.70;;;7.20;;
85218;SDS011;75606;40.152;44.490;2024-01-10T03:15:17;12.55;;;8.07;;
85218;SDS011;75606;40.152;44.490;2024-01-10T03:17:43;11.93;;;6.95;;
85218;SDS011;75606;40.152;44.490;2024-01-10T03:20:09;14.38;;;8.07;;
85218;SDS011;75606;40.152;44.490;2024-01-10T03:22:35;15.40;;;8.23;;
85218;SDS011;75606;40.152;44.490;2024-01-10T03:25:00;16.02;;;9.15;;
85218;SDS011;75606;40.152;44.490;2024-01-10T03:27:26;20.52;;;10.13;;
85218;SDS011;75606;40.152;44.490;2024-01-10T03:29:52;17.42;;;9.13;;
85218;SDS011;75606;40.152;44.490;2024-01-10T03:32:17;16.52;;;9.38;;
85218;SDS011;75606;40.152;44.490;2024-01-10T03:34:43;19.52;;;10.80;;
85218;SDS011;75606;40.152;44.490;2024-01-10T03:37:08;16.05;;;9.07;;
85218;SDS011;75606;40.152;44.490;2024-01-10T03:39:34;16.00;;;8.07;;
85218;SDS011;75606;40.152;44.490;2024-01-10T03:42:00;20.65;;;9.77;;
85218;SDS011;75606;40.152;44.490;2024-01-10T03:44:28;17.90;;;10.15;;
85218;SDS011;75606;40.152;44.490;2024-01-10T03:46:54;14.73;;;9.18;;
85218;SDS011;75606;40.152;44.490;2024-01-10T03:49:19;16.20;;;9.13;;
85218;SDS011;75606;40.152;44.490;2024-01-10T03:51:45;11.57;;;7.45;;
85218;SDS011;75606;40.152;44.490;2024-01-10T03:54:11;15.48;;;7.90;;
85218;SDS011;75606;40.152;44.490;2024-01-10T03:56:37;11.75;;;7.88;;
85218;SDS011;75606;40.152;44.490;2024-01-10T03:59:03;14.05;;;8.48;;
85218;SDS011;75606;40.152;44.490;2024-01-10T04:01:28;13.80;;;8.30;;
85218;SDS011;75606;40.152;44.490;2024-01-10T04:03:54;14.00;;;7.55;;
85218;SDS011;75606;40.152;44.490;2024-01-10T04:06:19;13.43;;;7.60;;
85218;SDS011;75606;40.152;44.490;2024-01-10T04:08:45;12.77;;;7.20;;
85218;SDS011;75606;40.152;44.490;2024-01-10T04:11:11;14.65;;;8.18;;
85218;SDS011;75606;40.152;44.490;2024-01-10T04:13:37;11.15;;;6.88;;
85218;SDS011;75606;40.152;44.490;2024-01-10T04:16:03;14.15;;;8.52;;
85218;SDS011;75606;40.152;44.490;2024-01-10T04:18:28;15.48;;;8.57;;
85218;SDS011;75606;40.152;44.490;2024-01-10T04:20:54;12.20;;;6.85;;
85218;SDS011;75606;40.152;44.490;2024-01-10T04:23:20;15.25;;;7.50;;
85218;SDS011;75606;40.152;44.490;2024-01-10T04:25:45;15.93;;;8.52;;
85218;SDS011;75606;40.152;44.490;2024-01-10T04:28:11;12.48;;;8.10;;
85218;SDS011;75606;40.152;44.490;2024-01-10T04:30:37;16.13;;;8.65;;
85218;SDS011;75606;40.152;44.490;2024-01-10T04:33:02;14.63;;;8.57;;
85218;SDS011;75606;40.152;44.490;2024-01-10T04:35:28;14.95;;;8.50;;
85218;SDS011;75606;40.152;44.490;2024-01-10T04:37:54;12.73;;;8.27;;
85218;SDS011;75606;40.152;44.490;2024-01-10T04:40:21;14.88;;;8.43;;
85218;SDS011;75606;40.152;44.490;2024-01-10T04:42:47;9.65;;;6.80;;
85218;SDS011;75606;40.152;44.490;2024-01-10T04:45:13;13.68;;;8.88;;
85218;SDS011;75606;40.152;44.490;2024-01-10T04:47:38;17.45;;;8.70;;
85218;SDS011;75606;40.152;44.490;2024-01-10T04:50:04;16.17;;;8.63;;
85218;SDS011;75606;40.152;44.490;2024-01-10T04:52:30;13.50;;;8.45;;
85218;SDS011;75606;40.152;44.490;2024-01-10T04:54:55;12.77;;;7.78;;
85218;SDS011;75606;40.152;44.490;2024-01-10T04:57:21;14.15;;;8.77;;
85218;SDS011;75606;40.152;44.490;2024-01-10T04:59:47;13.40;;;7.03;;
85218;SDS011;75606;40.152;44.490;2024-01-10T05:02:12;16.80;;;8.18;;
85218;SDS011;75606;40.152;44.490;2024-01-10T05:04:38;9.20;;;5.53;;
85218;SDS011;75606;40.152;44.490;2024-01-10T05:07:03;12.75;;;7.93;;
85218;SDS011;75606;40.152;44.490;2024-01-10T05:09:29;13.30;;;6.78;;
85218;SDS011;75606;40.152;44.490;2024-01-10T05:11:55;11.45;;;6.88;;
85218;SDS011;75606;40.152;44.490;2024-01-10T05:14:20;14.85;;;7.90;;
85218;SDS011;75606;40.152;44.490;2024-01-10T05:16:46;12.40;;;7.45;;
85218;SDS011;75606;40.152;44.490;2024-01-10T05:19:14;12.95;;;6.65;;
85218;SDS011;75606;40.152;44.490;2024-01-10T05:21:40;10.63;;;6.65;;
85218;SDS011;75606;40.152;44.490;2024-01-10T05:24:06;12.27;;;7.30;;
85218;SDS011;75606;40.152;44.490;2024-01-10T05:26:32;13.50;;;8.60;;
85218;SDS011;75606;40.152;44.490;2024-01-10T05:28:57;10.77;;;6.45;;
85218;SDS011;75606;40.152;44.490;2024-01-10T05:31:23;13.18;;;7.05;;
85218;SDS011;75606;40.152;44.490;2024-01-10T05:33:48;11.88;;;7.72;;
85218;SDS011;75606;40.152;44.490;2024-01-10T05:36:14;11.60;;;6.80;;
85218;SDS011;75606;40.152;44.490;2024-01-10T05:38:40;11.35;;;6.45;;
85218;SDS011;75606;40.152;44.490;2024-01-10T05:41:06;13.18;;;6.55;;
85218;SDS011;75606;40.152;44.490;2024-01-10T05:43:32;11.93;;;6.75;;
85218;SDS011;75606;40.152;44.490;2024-01-10T05:45:57;16.67;;;7.63;;
85218;SDS011;75606;40.152;44.490;2024-01-10T05:48:24;11.73;;;6.70;;
85218;SDS011;75606;40.152;44.490;2024-01-10T05:50:49;10.02;;;5.43;;
85218;SDS011;75606;40.152;44.490;2024-01-10T05:53:16;10.63;;;6.70;;
85218;SDS011;75606;40.152;44.490;2024-01-10T05:55:42;10.07;;;6.18;;
85218;SDS011;75606;40.152;44.490;2024-01-10T05:58:09;16.80;;;8.52;;
85218;SDS011;75606;40.152;44.490;2024-01-10T06:00:35;15.38;;;8.73;;
85218;SDS011;75606;40.152;44.490;2024-01-10T06:03:01;12.63;;;7.72;;
85218;SDS011;75606;40.152;44.490;2024-01-10T06:05:27;11.18;;;5.70;;
85218;SDS011;75606;40.152;44.490;2024-01-10T06:07:52;16.23;;;8.52;;
85218;SDS011;75606;40.152;44.490;2024-01-10T06:10:18;17.73;;;9.20;;
85218;SDS011;75606;40.152;44.490;2024-01-10T06:12:43;16.17;;;8.43;;
85218;SDS011;75606;40.152;44.490;2024-01-10T06:15:09;16.63;;;8.02;;
85218;SDS011;75606;40.152;44.490;2024-01-10T06:17:35;11.07;;;6.63;;
85218;SDS011;75606;40.152;44.490;2024-01-10T06:20:00;13.25;;;8.15;;
85218;SDS011;75606;40.152;44.490;2024-01-10T06:22:28;11.77;;;6.93;;
85218;SDS011;75606;40.152;44.490;2024-01-10T06:24:54;15.05;;;8.77;;
85218;SDS011;75606;40.152;44.490;2024-01-10T06:27:19;14.05;;;7.85;;
85218;SDS011;75606;40.152;44.490;2024-01-10T06:29:45;16.30;;;9.10;;
85218;SDS011;75606;40.152;44.490;2024-01-10T06:32:10;18.00;;;9.55;;
85218;SDS011;75606;40.152;44.490;2024-01-10T06:34:36;20.55;;;9.50;;
85218;SDS011;75606;40.152;44.490;2024-01-10T06:37:02;11.30;;;8.10;;
85218;SDS011;75606;40.152;44.490;2024-01-10T06:39:28;15.65;;;8.82;;
85218;SDS011;75606;40.152;44.490;2024-01-10T06:41:54;13.60;;;8.35;;
85218;SDS011;75606;40.152;44.490;2024-01-10T06:44:20;14.32;;;8.68;;
85218;SDS011;75606;40.152;44.490;2024-01-10T06:46:45;17.42;;;9.27;;
85218;SDS011;75606;40.152;44.490;2024-01-10T06:49:11;11.70;;;6.88;;
85218;SDS011;75606;40.152;44.490;2024-01-10T06:51:37;12.55;;;7.82;;
85218;SDS011;75606;40.152;44.490;2024-01-10T06:54:03;17.05;;;9.45;;
85218;SDS011;75606;40.152;44.490;2024-01-10T06:56:32;18.48;;;9.93;;
85218;SDS011;75606;40.152;44.490;2024-01-10T06:58:59;15.70;;;8.20;;
85218;SDS011;75606;40.152;44.490;2024-01-10T07:01:25;19.83;;;11.60;;
85218;SDS011;75606;40.152;44.490;2024-01-10T07:03:54;27.00;;;13.52;;
85218;SDS011;75606;40.152;44.490;2024-01-10T07:06:21;14.32;;;8.30;;
85218;SDS011;75606;40.152;44.490;2024-01-10T07:08:47;15.07;;;7.90;;
85218;SDS011;75606;40.152;44.490;2024-01-10T07:11:14;16.30;;;9.95;;
85218;SDS011;75606;40.152;44.490;2024-01-10T07:13:40;13.73;;;8.10;;
85218;SDS011;75606;40.152;44.490;2024-01-10T07:16:07;14.82;;;8.63;;
85218;SDS011;75606;40.152;44.490;2024-01-10T07:18:33;11.43;;;6.95;;
85218;SDS011;75606;40.152;44.490;2024-01-10T07:20:59;17.08;;;9.30;;
85218;SDS011;75606;40.152;44.490;2024-01-10T07:23:24;15.40;;;9.20;;
85218;SDS011;75606;40.152;44.490;2024-01-10T07:25:51;12.35;;;7.85;;
85218;SDS011;75606;40.152;44.490;2024-01-10T07:28:17;16.38;;;9.50;;
85218;SDS011;75606;40.152;44.490;2024-01-10T07:30:43;18.80;;;10.85;;
85218;SDS011;75606;40.152;44.490;2024-01-10T07:33:09;21.65;;;13.57;;
85218;SDS011;75606;40.152;44.490;2024-01-10T07:35:35;17.83;;;9.48;;
85218;SDS011;75606;40.152;44.490;2024-01-10T07:38:03;20.05;;;11.85;;
85218;SDS011;75606;40.152;44.490;2024-01-10T07:40:29;19.13;;;11.43;;
85218;SDS011;75606;40.152;44.490;2024-01-10T07:42:54;13.85;;;8.73;;
85218;SDS011;75606;40.152;44.490;2024-01-10T07:45:21;15.38;;;8.73;;
85218;SDS011;75606;40.152;44.490;2024-01-10T07:47:47;18.55;;;11.45;;
85218;SDS011;75606;40.152;44.490;2024-01-10T07:50:13;15.35;;;10.02;;
85218;SDS011;75606;40.152;44.490;2024-01-10T07:52:39;13.27;;;9.07;;
85218;SDS011;75606;40.152;44.490;2024-01-10T07:55:05;18.52;;;9.95;;
85218;SDS011;75606;40.152;44.490;2024-01-10T07:57:32;18.65;;;10.48;;
85218;SDS011;75606;40.152;44.490;2024-01-10T07:59:59;28.42;;;13.02;;
85218;SDS011;75606;40.152;44.490;2024-01-10T08:02:25;19.65;;;10.27;;
85218;SDS011;75606;40.152;44.490;2024-01-10T08:04:51;14.73;;;10.32;;
85218;SDS011;75606;40.152;44.490;2024-01-10T08:07:17;11.73;;;7.88;;
85218;SDS011;75606;40.152;44.490;2024-01-10T08:09:43;21.05;;;10.75;;
85218;SDS011;75606;40.152;44.490;2024-01-10T08:12:09;16.58;;;9.05;;
85218;SDS011;75606;40.152;44.490;2024-01-10T08:14:34;18.75;;;10.18;;
85218;SDS011;75606;40.152;44.490;2024-01-10T08:17:00;13.68;;;9.20;;
85218;SDS011;75606;40.152;44.490;2024-01-10T08:19:26;14.20;;;8.80;;
85218;SDS011;75606;40.152;44.490;2024-01-10T08:21:54;7.55;;;5.32;;
85218;SDS011;75606;40.152;44.490;2024-01-10T08:24:20;10.05;;;6.47;;
85218;SDS011;75606;40.152;44.490;2024-01-10T08:26:46;13.40;;;7.13;;
85218;SDS011;75606;40.152;44.490;2024-01-10T08:29:17;8.13;;;5.75;;
85218;SDS011;75606;40.152;44.490;2024-01-10T08:31:49;10.40;;;5.38;;
85218;SDS011;75606;40.152;44.490;2024-01-10T08:34:14;11.95;;;8.18;;
85218;SDS011;75606;40.152;44.490;2024-01-10T08:36:40;15.98;;;9.48;;
85218;SDS011;75606;40.152;44.490;2024-01-10T08:39:06;15.25;;;8.95;;
85218;SDS011;75606;40.152;44.490;2024-01-10T08:41:32;13.95;;;8.25;;
85218;SDS011;75606;40.152;44.490;2024-01-10T08:43:58;15.60;;;9.50;;
85218;SDS011;75606;40.152;44.490;2024-01-10T08:46:25;12.13;;;8.02;;
85218;SDS011;75606;40.152;44.490;2024-01-10T08:48:50;11.98;;;8.32;;
85218;SDS011;75606;40.152;44.490;2024-01-10T08:51:16;10.45;;;6.18;;
85218;SDS011;75606;40.152;44.490;2024-01-10T08:53:45;11.40;;;7.82;;
85218;SDS011;75606;40.152;44.490;2024-01-10T08:56:10;10.73;;;7.63;;
85218;SDS011;75606;40.152;44.490;2024-01-10T08:58:36;17.52;;;11.23;;
85218;SDS011;75606;40.152;44.490;2024-01-10T09:01:03;19.50;;;12.52;;
85218;SDS011;75606;40.152;44.490;2024-01-10T09:03:33;17.80;;;11.77;;
85218;SDS011;75606;40.152;44.490;2024-01-10T09:05:59;16.52;;;11.32;;
85218;SDS011;75606;40.152;44.490;2024-01-10T09:08:25;16.17;;;8.75;;
85218;SDS011;75606;40.152;44.490;2024-01-10T09:10:50;13.98;;;8.85;;
85218;SDS011;75606;40.152;44.490;2024-01-10T09:13:16;17.52;;;11.98;;
85218;SDS011;75606;40.152;44.490;2024-01-10T09:15:42;14.35;;;9.60;;
85218;SDS011;75606;40.152;44.490;2024-01-10T09:18:08;9.25;;;6.50;;
85218;SDS011;75606;40.152;44.490;2024-01-10T09:20:34;22.30;;;11.80;;
85218;SDS011;75606;40.152;44.490;2024-01-10T09:23:01;18.13;;;10.60;;
85218;SDS011;75606;40.152;44.490;2024-01-10T09:25:27;21.23;;;13.20;;
85218;SDS011;75606;40.152;44.490;2024-01-10T09:27:53;21.45;;;12.32;;
85218;SDS011;75606;40.152;44.490;2024-01-10T09:30:19;22.33;;;11.55;;
85218;SDS011;75606;40.152;44.490;2024-01-10T09:32:45;19.67;;;12.32;;
85218;SDS011;75606;40.152;44.490;2024-01-10T09:35:12;18.42;;;11.13;;
85218;SDS011;75606;40.152;44.490;2024-01-10T09:37:38;16.88;;;11.57;;
85218;SDS011;75606;40.152;44.490;2024-01-10T09:40:04;16.95;;;12.23;;
85218;SDS011;75606;40.152;44.490;2024-01-10T09:42:34;24.35;;;15.98;;
85218;SDS011;75606;40.152;44.490;2024-01-10T09:45:02;19.60;;;11.07;;
85218;SDS011;75606;40.152;44.490;2024-01-10T09:47:30;22.38;;;13.27;;
85218;SDS011;75606;40.152;44.490;2024-01-10T09:49:57;22.50;;;14.00;;
85218;SDS011;75606;40.152;44.490;2024-01-10T09:52:26;22.13;;;15.02;;
85218;SDS011;75606;40.152;44.490;2024-01-10T09:54:56;17.65;;;11.52;;
85218;SDS011;75606;40.152;44.490;2024-01-10T09:57:23;22.65;;;13.65;;
85218;SDS011;75606;40.152;44.490;2024-01-10T09:59:50;19.10;;;13.38;;
85218;SDS011;75606;40.152;44.490;2024-01-10T10:02:17;14.95;;;9.48;;
85218;SDS011;75606;40.152;44.490;2024-01-10T10:04:46;13.20;;;8.80;;
85218;SDS011;75606;40.152;44.490;2024-01-10T10:07:19;12.13;;;8.23;;
85218;SDS011;75606;40.152;44.490;2024-01-10T10:09:44;15.40;;;9.88;;
85218;SDS011;75606;40.152;44.490;2024-01-10T10:12:10;18.52;;;10.65;;
85218;SDS011;75606;40.152;44.490;2024-01-10T10:14:35;19.02;;;10.77;;
85218;SDS011;75606;40.152;44.490;2024-01-10T10:17:34;14.80;;;9.35;;
85218;SDS011;75606;40.152;44.490;2024-01-10T10:19:57;17.55;;;9.43;;
85218;SDS011;75606;40.152;44.490;2024-01-10T10:22:29;15.25;;;9.50;;
85218;SDS011;75606;40.152;44.490;2024-01-10T10:24:54;13.18;;;9.05;;
85218;SDS011;75606;40.152;44.490;2024-01-10T10:27:20;15.75;;;9.50;;
85218;SDS011;75606;40.152;44.490;2024-01-10T10:29:46;13.13;;;9.88;;
85218;SDS011;75606;40.152;44.490;2024-01-10T10:32:11;14.85;;;8.25;;
85218;SDS011;75606;40.152;44.490;2024-01-10T10:34:37;15.57;;;8.93;;
85218;SDS011;75606;40.152;44.490;2024-01-10T10:37:03;14.55;;;9.27;;
85218;SDS011;75606;40.152;44.490;2024-01-10T10:39:29;15.10;;;10.00;;
85218;SDS011;75606;40.152;44.490;2024-01-10T10:41:57;15.93;;;8.55;;
85218;SDS011;75606;40.152;44.490;2024-01-10T10:44:27;14.82;;;8.48;;
85218;SDS011;75606;40.152;44.490;2024-01-10T10:46:53;10.38;;;6.47;;
85218;SDS011;75606;40.152;44.490;2024-01-10T10:49:22;11.52;;;7.07;;
85218;SDS011;75606;40.152;44.490;2024-01-10T10:51:55;10.95;;;6.88;;
85218;SDS011;75606;40.152;44.490;2024-01-10T10:54:25;9.13;;;7.00;;
85218;SDS011;75606;40.152;44.490;2024-01-10T10:56:54;8.35;;;5.25;;
85218;SDS011;75606;40.152;44.490;2024-01-10T10:59:24;10.50;;;7.60;;
85218;SDS011;75606;40.152;44.490;2024-01-10T11:01:51;11.32;;;7.32;;
85218;SDS011;75606;40.152;44.490;2024-01-10T11:04:17;9.05;;;5.70;;
85218;SDS011;75606;40.152;44.490;2024-01-10T11:06:43;11.52;;;7.00;;
85218;SDS011;75606;40.152;44.490;2024-01-10T11:09:09;9.82;;;6.38;;
85218;SDS011;75606;40.152;44.490;2024-01-10T11:25:18;10.48;;;6.85;;
85218;SDS011;75606;40.152;44.490;2024-01-10T11:27:44;21.42;;;9.52;;
85218;SDS011;75606;40.152;44.490;2024-01-10T11:30:12;16.75;;;10.52;;
85218;SDS011;75606;40.152;44.490;2024-01-10T11:32:38;11.57;;;7.22;;
85218;SDS011;75606;40.152;44.490;2024-01-10T11:35:19;11.07;;;7.40;;
85218;SDS011;75606;40.152;44.490;2024-01-10T11:37:49;12.07;;;7.40;;
85218;SDS011;75606;40.152;44.490;2024-01-10T11:40:16;15.27;;;9.00;;
85218;SDS011;75606;40.152;44.490;2024-01-10T11:43:12;11.30;;;6.97;;
85218;SDS011;75606;40.152;44.490;2024-01-10T11:48:03;12.43;;;7.45;;
85218;SDS011;75606;40.152;44.490;2024-01-10T11:50:31;9.52;;;6.38;;
85218;SDS011;75606;40.152;44.490;2024-01-10T11:52:57;15.15;;;8.15;;
85218;SDS011;75606;40.152;44.490;2024-01-10T11:58:13;12.63;;;7.20;;
85218;SDS011;75606;40.152;44.490;2024-01-10T12:00:39;11.30;;;7.53;;
85218;SDS011;75606;40.152;44.490;2024-01-10T12:03:06;11.85;;;7.57;;
85218;SDS011;75606;40.152;44.490;2024-01-10T12:05:34;14.40;;;8.23;;
85218;SDS011;75606;40.152;44.490;2024-01-10T12:08:00;15.50;;;8.05;;
85218;SDS011;75606;40.152;44.490;2024-01-10T12:10:26;9.80;;;6.03;;
85218;SDS011;75606;40.152;44.490;2024-01-10T12:12:52;13.73;;;7.93;;
85218;SDS011;75606;40.152;44.490;2024-01-10T12:15:20;10.80;;;6.28;;
85218;SDS011;75606;40.152;44.490;2024-01-10T12:17:45;10.93;;;6.65;;
85218;SDS011;75606;40.152;44.490;2024-01-10T12:20:11;11.00;;;6.60;;
85218;SDS011;75606;40.152;44.490;2024-01-10T12:22:37;10.77;;;6.32;;
85218;SDS011;75606;40.152;44.490;2024-01-10T12:25:06;14.63;;;8.95;;
85218;SDS011;75606;40.152;44.490;2024-01-10T12:29:59;12.07;;;7.05;;
85218;SDS011;75606;40.152;44.490;2024-01-10T12:32:28;11.88;;;6.35;;
85218;SDS011;75606;40.152;44.490;2024-01-10T12:35:03;11.32;;;7.32;;
85218;SDS011;75606;40.152;44.490;2024-01-10T12:37:30;13.50;;;6.30;;
85218;SDS011;75606;40.152;44.490;2024-01-10T12:39:56;10.20;;;5.78;;
85218;SDS011;75606;40.152;44.490;2024-01-10T12:42:22;7.35;;;4.30;;
85218;SDS011;75606;40.152;44.490;2024-01-10T12:44:49;10.43;;;6.47;;
85218;SDS011;75606;40.152;44.490;2024-01-10T12:47:18;8.73;;;5.72;;
85218;SDS011;75606;40.152;44.490;2024-01-10T12:49:48;12.07;;;6.78;;
85218;SDS011;75606;40.152;44.490;2024-01-10T12:52:13;11.27;;;6.88;;
85218;SDS011;75606;40.152;44.490;2024-01-10T12:54:39;12.95;;;8.35;;
85218;SDS011;75606;40.152;44.490;2024-01-10T12:57:05;12.88;;;7.47;;
85218;SDS011;75606;40.152;44.490;2024-01-10T12:59:34;14.25;;;7.68;;
85218;SDS011;75606;40.152;44.490;2024-01-10T13:02:00;15.20;;;8.73;;
85218;SDS011;75606;40.152;44.490;2024-01-10T13:04:26;12.93;;;7.28;;
85218;SDS011;75606;40.152;44.490;2024-01-10T13:06:51;12.15;;;6.78;;
85218;SDS011;75606;40.152;44.490;2024-01-10T13:09:17;14.07;;;8.70;;
85218;SDS011;75606;40.152;44.490;2024-01-10T13:11:43;13.65;;;8.00;;
85218;SDS011;75606;40.152;44.490;2024-01-10T13:14:10;12.30;;;7.10;;
85218;SDS011;75606;40.152;44.490;2024-01-10T13:16:37;12.55;;;7.65;;
85218;SDS011;75606;40.152;44.490;2024-01-10T13:19:03;12.02;;;7.53;;
85218;SDS011;75606;40.152;44.490;2024-01-10T13:21:29;9.95;;;6.80;;
85218;SDS011;75606;40.152;44.490;2024-01-10T13:23:54;16.80;;;9.27;;
85218;SDS011;75606;40.152;44.490;2024-01-10T13:26:20;12.43;;;7.57;;
85218;SDS011;75606;40.152;44.490;2024-01-10T13:28:46;12.77;;;8.57;;
85218;SDS011;75606;40.152;44.490;2024-01-10T13:31:12;13.77;;;8.90;;
85218;SDS011;75606;40.152;44.490;2024-01-10T13:33:40;16.77;;;9.73;;
85218;SDS011;75606;40.152;44.490;2024-01-10T13:36:06;16.60;;;8.70;;
85218;SDS011;75606;40.152;44.490;2024-01-10T13:38:32;15.70;;;8.75;;
85218;SDS011;75606;40.152;44.490;2024-01-10T13:40:57;11.60;;;7.90;;
85218;SDS011;75606;40.152;44.490;2024-01-10T13:43:23;12.45;;;7.35;;
85218;SDS011;75606;40.152;44.490;2024-01-10T13:45:49;23.75;;;12.68;;
85218;SDS011;75606;40.152;44.490;2024-01-10T13:48:14;19.50;;;10.50;;
85218;SDS011;75606;40.152;44.490;2024-01-10T13:50:41;14.82;;;8.63;;
85218;SDS011;75606;40.152;44.490;2024-01-10T13:53:06;14.63;;;8.13;;
85218;SDS011;75606;40.152;44.490;2024-01-10T13:55:32;22.52;;;11.07;;
85218;SDS011;75606;40.152;44.490;2024-01-10T13:57:58;14.90;;;7.55;;
85218;SDS011;75606;40.152;44.490;2024-01-10T14:00:24;12.73;;;7.47;;
85218;SDS011;75606;40.152;44.490;2024-01-10T14:02:49;17.73;;;9.35;;
85218;SDS011;75606;40.152;44.490;2024-01-10T14:05:15;13.75;;;8.32;;
85218;SDS011;75606;40.152;44.490;2024-01-10T14:07:41;15.48;;;8.25;;
85218;SDS011;75606;40.152;44.490;2024-01-10T14:10:10;19.88;;;9.05;;
85218;SDS011;75606;40.152;44.490;2024-01-10T14:12:36;15.60;;;8.35;;
85218;SDS011;75606;40.152;44.490;2024-01-10T14:15:02;14.35;;;8.20;;
85218;SDS011;75606;40.152;44.490;2024-01-10T14:17:29;17.40;;;8.23;;
85218;SDS011;75606;40.152;44.490;2024-01-10T14:19:54;12.18;;;7.72;;
85218;SDS011;75606;40.152;44.490;2024-01-10T14:22:20;14.18;;;8.00;;
85218;SDS011;75606;40.152;44.490;2024-01-10T14:24:49;12.82;;;6.10;;
85218;SDS011;75606;40.152;44.490;2024-01-10T14:27:14;16.67;;;7.43;;
85218;SDS011;75606;40.152;44.490;2024-01-10T14:29:40;15.82;;;6.97;;
85218;SDS011;75606;40.152;44.490;2024-01-10T14:32:05;11.80;;;6.45;;
85218;SDS011;75606;40.152;44.490;2024-01-10T14:34:31;13.13;;;7.40;;
85218;SDS011;75606;40.152;44.490;2024-01-10T14:37:00;13.07;;;7.70;;
85218;SDS011;75606;40.152;44.490;2024-01-10T14:39:25;12.95;;;7.38;;